Time;durP1;ratioP1;P1;durP2;ratioP2;P2;SDS_P1;SDS_P2;PMS_P1;PMS_P2;Temp;Humidity;BMP_temperature;BMP_pressure;BME280_temperature;BME280_humidity;BME280_pressure;Samples;Min_cycle;Max_cycle;Signal;HPM_P1;HPM_P2
2023/03/29 00:00:11;;;;;;;5.47;2.47;;;;;;;3.31;48.44;99917.84;4257876;33;33810;-83
2023/03/29 00:02:40;;;;;;;4.95;2.10;;;;;;;3.34;48.51;99922.28;4245713;33;34372;-84
2023/03/29 00:05:08;;;;;;;4.37;2.17;;;;;;;3.35;48.58;99917.22;4243171;33;34133;-82
2023/03/29 00:07:36;;;;;;;4.53;2.53;;;;;;;3.47;48.28;99926.38;4244979;33;33127;-83
2023/03/29 00:10:04;;;;;;;6.55;2.33;;;;;;;3.20;48.34;99928.34;4257522;33;33945;-83
2023/03/29 00:12:32;;;;;;;4.03;2.12;;;;;;;3.13;48.42;99922.00;4255715;33;34151;-83
2023/03/29 00:15:00;;;;;;;5.87;2.47;;;;;;;3.17;48.00;99913.66;4244031;33;33435;-83
2023/03/29 00:17:29;;;;;;;7.15;2.85;;;;;;;3.29;47.74;99908.31;4257961;33;33785;-84
2023/03/29 00:19:56;;;;;;;4.35;1.92;;;;;;;3.18;47.87;99907.72;4258075;33;33964;-84
2023/03/29 00:22:24;;;;;;;4.85;2.15;;;;;;;3.05;47.85;99908.75;4245265;33;34514;-84
2023/03/29 00:24:53;;;;;;;5.87;2.50;;;;;;;3.07;48.22;99908.84;4257423;33;34671;-83
2023/03/29 00:27:20;;;;;;;5.03;2.03;;;;;;;3.11;48.22;99913.34;4257856;33;33548;-82
2023/03/29 00:29:48;;;;;;;5.03;2.15;;;;;;;2.62;48.55;99908.09;4257585;33;33817;-84
2023/03/29 00:32:16;;;;;;;6.93;2.65;;;;;;;2.92;48.04;99912.34;4232494;33;33744;-84
2023/03/29 00:34:44;;;;;;;5.65;2.20;;;;;;;2.89;48.15;99907.06;4257711;33;34262;-83
2023/03/29 00:37:13;;;;;;;4.40;2.37;;;;;;;2.90;48.06;99905.38;4257855;33;33944;-83
2023/03/29 00:39:41;;;;;;;6.05;2.22;;;;;;;2.88;47.79;99899.31;4245181;33;33519;-82
2023/03/29 00:42:12;;;;;;;6.85;2.75;;;;;;;2.73;48.54;99908.66;4242596;33;33831;-83
2023/03/29 00:44:55;;;;;;;7.95;2.47;;;;;;;2.57;49.10;99906.94;4257099;33;34362;-83
2023/03/29 00:47:28;;;;;;;6.18;2.33;;;;;;;2.68;48.76;99906.72;4258032;33;34470;-84
2023/03/29 00:50:02;;;;;;;5.32;2.47;;;;;;;2.73;48.84;99899.34;4257096;33;33932;-83
2023/03/29 00:52:30;;;;;;;6.28;3.25;;;;;;;2.55;49.26;99903.41;4239055;33;34170;-84
2023/03/29 00:55:03;;;;;;;6.55;2.62;;;;;;;2.71;48.82;99894.91;4257711;33;34314;-84
2023/03/29 00:57:32;;;;;;;5.18;2.67;;;;;;;2.70;49.06;99904.28;4244976;33;33658;-83
2023/03/29 01:00:03;;;;;;;5.57;2.30;;;;;;;2.60;49.31;99897.75;4240369;33;35160;-83
2023/03/29 01:02:33;;;;;;;4.80;2.10;;;;;;;2.67;48.80;99897.28;4254925;33;34282;-83
2023/03/29 01:05:13;;;;;;;5.68;2.35;;;;;;;2.77;48.71;99883.34;4244441;33;34459;-83
2023/03/29 01:07:57;;;;;;;3.55;2.05;;;;;;;2.66;48.61;99889.53;4244799;33;33306;-83
2023/03/29 01:10:44;;;;;;;5.45;2.70;;;;;;;2.64;49.17;99888.56;4245252;33;33483;-84
2023/03/29 01:13:18;;;;;;;;;;;;;;;2.51;49.67;99881.00;4243120;33;34171;-84
2023/03/29 01:15:45;;;;;;;5.70;2.17;;;;;;;2.45;49.54;99876.41;4231799;33;34527;-83
2023/03/29 01:18:15;;;;;;;6.55;2.83;;;;;;;2.35;49.66;99869.91;4258016;33;33830;-85
2023/03/29 01:20:55;;;;;;;5.37;2.22;;;;;;;2.40;49.67;99865.06;4257923;33;33894;-83
2023/03/29 01:23:38;;;;;;;8.35;2.37;;;;;;;2.41;49.71;99864.25;4232231;33;33157;-83
2023/03/29 01:26:09;;;;;;;6.62;2.87;;;;;;;2.21;50.23;99865.69;4256801;33;35162;-83
2023/03/29 01:28:44;;;;;;;7.00;2.85;;;;;;;1.85;50.95;99867.88;4258177;33;33303;-83
2023/03/29 01:31:17;;;;;;;5.55;2.70;;;;;;;2.18;49.86;99875.75;4257344;33;34474;-84
2023/03/29 01:33:48;;;;;;;8.30;3.62;;;;;;;2.24;49.79;99868.44;4257556;33;34210;-84
2023/03/29 01:36:19;;;;;;;11.75;4.22;;;;;;;2.15;50.00;99867.88;4244322;33;35147;-84
2023/03/29 01:38:57;;;;;;;8.82;3.92;;;;;;;2.26;50.00;99859.16;4244050;33;34181;-85
2023/03/29 01:41:51;;;;;;;9.75;4.03;;;;;;;2.25;50.11;99867.62;4243493;33;34426;-84
2023/03/29 01:44:31;;;;;;;10.50;4.00;;;;;;;2.32;49.76;99867.19;4241174;33;34897;-84
2023/03/29 01:47:25;;;;;;;9.05;3.35;;;;;;;2.18;50.22;99866.38;4257002;33;34200;-85
2023/03/29 01:50:06;;;;;;;8.90;3.20;;;;;;;2.20;49.95;99869.06;4244443;33;34302;-85
2023/03/29 01:52:46;;;;;;;10.30;3.22;;;;;;;2.26;50.08;99858.25;4244603;33;33987;-85
2023/03/29 01:55:23;;;;;;;9.30;2.80;;;;;;;2.22;49.36;99859.78;4257659;33;34849;-85
2023/03/29 01:57:51;;;;;;;6.65;2.83;;;;;;;2.31;49.17;99860.31;4221146;33;33370;-85
2023/03/29 02:00:23;;;;;;;7.78;2.78;;;;;;;2.19;49.59;99867.25;4256128;33;33731;-85
2023/03/29 02:02:53;;;;;;;6.65;2.65;;;;;;;1.94;50.10;99870.09;4243161;33;34156;-84
2023/03/29 02:05:23;;;;;;;7.05;2.47;;;;;;;1.82;50.46;99867.72;4255953;33;35066;-84
2023/03/29 02:07:52;;;;;;;9.13;3.08;;;;;;;1.38;51.17;99870.19;4243972;33;34146;-85
2023/03/29 02:10:21;;;;;;;5.47;2.10;;;;;;;1.87;50.17;99868.84;4232626;33;33823;-85
2023/03/29 02:12:49;;;;;;;6.70;2.53;;;;;;;1.87;50.00;99863.75;4245197;33;33981;-85
2023/03/29 02:15:19;;;;;;;4.25;2.25;;;;;;;1.95;49.84;99857.41;4255724;33;34125;-83
2023/03/29 02:17:48;;;;;;;4.53;1.90;;;;;;;1.91;49.44;99858.00;4255605;33;34372;-85
2023/03/29 02:20:24;;;;;;;5.37;2.25;;;;;;;1.93;49.66;99861.56;4257821;33;33593;-85
2023/03/29 02:22:57;;;;;;;4.60;2.22;;;;;;;1.97;49.92;99866.81;4257244;33;33644;-84
2023/03/29 02:25:25;;;;;;;4.72;2.30;;;;;;;1.89;50.29;99867.25;4256228;33;33977;-85
2023/03/29 02:27:53;;;;;;;5.07;2.62;;;;;;;1.98;49.81;99860.94;4243326;33;33871;-86
2023/03/29 02:30:24;;;;;;;6.80;3.05;;;;;;;2.02;49.50;99865.44;4244256;33;33937;-85
2023/03/29 02:33:08;;;;;;;7.75;3.85;;;;;;;1.88;49.79;99852.72;4244448;33;33608;-84
2023/03/29 02:35:47;;;;;;;11.85;5.00;;;;;;;1.82;49.80;99862.59;4255707;33;34187;-85
2023/03/29 02:38:16;;;;;;;14.30;4.97;;;;;;;1.94;49.99;99863.31;4244187;33;34177;-83
2023/03/29 02:40:45;;;;;;;12.23;4.87;;;;;;;1.89;50.06;99866.38;4242202;33;32987;-85
2023/03/29 02:43:14;;;;;;;8.77;4.30;;;;;;;1.84;50.07;99873.78;4243310;33;33179;-84
2023/03/29 02:45:43;;;;;;;15.15;5.55;;;;;;;1.87;50.19;99881.63;4244562;33;33583;-85
2023/03/29 02:48:15;;;;;;;15.10;6.68;;;;;;;1.81;50.34;99888.94;4243337;33;34251;-85
2023/03/29 02:50:44;;;;;;;12.85;6.18;;;;;;;1.80;50.33;99887.19;4257112;33;33675;-85
2023/03/29 02:53:16;;;;;;;17.90;7.00;;;;;;;1.72;50.34;99882.41;4243838;33;33928;-84
2023/03/29 02:55:45;;;;;;;13.70;5.45;;;;;;;1.69;50.60;99883.12;4243502;33;34611;-85
2023/03/29 02:58:16;;;;;;;17.52;7.05;;;;;;;1.78;50.12;99883.66;4243960;33;34927;-85
2023/03/29 03:00:47;;;;;;;14.93;6.18;;;;;;;1.74;50.01;99886.81;4234943;33;33418;-85
2023/03/29 03:03:15;;;;;;;15.25;5.80;;;;;;;1.80;49.81;99886.31;4238317;33;33635;-85
2023/03/29 03:05:44;;;;;;;17.77;6.43;;;;;;;1.68;50.10;99882.22;4256029;33;33983;-84
2023/03/29 03:08:13;;;;;;;12.98;5.28;;;;;;;1.75;49.83;99886.03;4256645;33;34888;-83
2023/03/29 03:10:41;;;;;;;14.55;6.18;;;;;;;1.80;49.79;99892.28;4256610;33;33674;-85
2023/03/29 03:13:09;;;;;;;20.05;8.73;;;;;;;1.86;49.63;99895.22;4255774;33;34643;-84
2023/03/29 03:15:37;;;;;;;16.55;8.20;;;;;;;1.83;49.66;99892.47;4255742;33;32930;-83
2023/03/29 03:18:05;;;;;;;13.88;6.47;;;;;;;1.99;49.40;99888.25;4259186;33;34219;-82
2023/03/29 03:20:33;;;;;;;16.55;7.12;;;;;;;1.78;49.80;99896.47;4255508;33;34477;-82
2023/03/29 03:23:02;;;;;;;18.42;7.95;;;;;;;1.65;50.33;99892.28;4243385;33;33881;-82
2023/03/29 03:25:30;;;;;;;21.25;7.43;;;;;;;1.75;50.23;99898.81;4250546;33;35584;-83
2023/03/29 03:28:00;;;;;;;13.00;6.40;;;;;;;1.78;50.31;99901.56;4232111;33;34062;-82
2023/03/29 03:30:27;;;;;;;15.35;5.78;;;;;;;1.66;51.01;99903.38;4255401;33;35338;-83
2023/03/29 03:32:56;;;;;;;13.57;5.65;;;;;;;1.79;50.55;99898.22;4257179;33;34329;-83
2023/03/29 03:35:24;;;;;;;13.15;5.28;;;;;;;1.65;50.37;99892.28;4256207;33;34302;-82
2023/03/29 03:37:52;;;;;;;14.60;6.00;;;;;;;1.74;50.11;99902.16;4256403;33;33723;-84
2023/03/29 03:40:19;;;;;;;9.02;4.82;;;;;;;1.69;50.11;99895.91;4256619;33;34411;-82
2023/03/29 03:42:47;;;;;;;10.07;3.37;;;;;;;1.58;50.63;99902.03;4254819;33;33704;-82
2023/03/29 03:45:15;;;;;;;10.10;4.10;;;;;;;1.54;51.22;99906.06;4255607;33;34185;-83
2023/03/29 03:47:44;;;;;;;8.95;4.30;;;;;;;1.58;51.24;99902.91;4255423;33;34158;-82
2023/03/29 03:50:12;;;;;;;8.77;3.17;;;;;;;1.78;50.42;99916.00;4256636;33;33511;-82
2023/03/29 03:52:40;;;;;;;6.70;3.12;;;;;;;1.65;51.43;99922.06;4255634;33;33582;-83
2023/03/29 03:55:08;;;;;;;8.23;3.47;;;;;;;1.61;52.32;99921.00;4255853;33;33864;-81
2023/03/29 03:57:40;;;;;;;6.87;3.22;;;;;;;1.95;51.39;99916.22;4255886;33;34911;-83
2023/03/29 04:00:20;;;;;;;8.73;3.37;;;;;;;1.75;51.82;99918.41;4256496;33;33105;-82
2023/03/29 04:02:50;;;;;;;7.05;3.45;;;;;;;1.74;52.13;99920.03;4255626;33;34764;-83
2023/03/29 04:05:18;;;;;;;8.50;3.15;;;;;;;1.87;51.50;99920.00;4243071;33;34032;-81
2023/03/29 04:07:48;;;;;;;12.05;4.00;;;;;;;1.65;51.98;99919.50;4258198;33;33932;-81
2023/03/29 04:10:16;;;;;;;9.25;4.10;;;;;;;1.46;52.62;99915.84;4259726;33;33564;-82
2023/03/29 04:12:45;;;;;;;8.23;4.07;;;;;;;1.69;51.89;99918.91;4259029;33;34468;-82
2023/03/29 04:15:12;;;;;;;8.88;4.47;;;;;;;1.54;52.07;99917.97;4245779;33;33903;-83
2023/03/29 04:17:41;;;;;;;8.65;4.72;;;;;;;1.59;52.57;99911.47;4250374;33;34273;-83
2023/03/29 04:20:11;;;;;;;11.82;4.37;;;;;;;1.78;52.69;99914.34;4254456;33;33225;-83
2023/03/29 04:22:39;;;;;;;9.45;5.05;;;;;;;1.76;52.61;99915.91;4244439;33;33825;-84
2023/03/29 04:25:09;;;;;;;9.50;5.00;;;;;;;1.67;52.77;99907.72;4246234;33;34486;-84
2023/03/29 04:27:39;;;;;;;7.70;3.97;;;;;;;1.54;53.48;99908.63;4241232;33;34452;-83
2023/03/29 04:30:08;;;;;;;7.60;3.85;;;;;;;1.61;53.51;99905.66;4245365;33;33632;-83
2023/03/29 04:32:38;;;;;;;8.68;3.35;;;;;;;1.65;53.60;99917.81;4245601;33;33395;-83
2023/03/29 04:35:06;;;;;;;9.77;3.87;;;;;;;1.63;53.90;99921.06;4246516;33;34365;-84
2023/03/29 04:37:34;;;;;;;6.87;3.67;;;;;;;1.72;54.01;99926.75;4245254;33;34327;-83
2023/03/29 04:40:07;;;;;;;6.75;3.67;;;;;;;1.86;53.21;99925.91;4256407;33;34397;-82
2023/03/29 04:42:36;;;;;;;8.88;3.80;;;;;;;1.80;52.79;99933.19;4244615;33;33898;-83
2023/03/29 04:45:05;;;;;;;8.80;4.40;;;;;;;1.95;51.95;99930.66;4251001;33;34125;-83
2023/03/29 04:47:38;;;;;;;7.65;3.65;;;;;;;1.98;51.63;99927.44;4258551;33;33845;-83
2023/03/29 04:50:07;;;;;;;7.40;4.12;;;;;;;1.97;51.86;99933.31;4252469;33;33660;-83
2023/03/29 04:52:36;;;;;;;7.45;3.75;;;;;;;1.99;52.22;99934.28;4257074;33;34436;-84
2023/03/29 04:55:05;;;;;;;13.00;4.65;;;;;;;2.12;51.92;99937.69;4259203;33;33872;-83
2023/03/29 04:57:36;;;;;;;8.00;4.32;;;;;;;2.31;51.65;99936.16;4240847;33;33971;-83
2023/03/29 05:00:13;;;;;;;9.07;4.28;;;;;;;2.70;51.89;99935.00;4254963;33;34428;-84
2023/03/29 05:02:43;;;;;;;7.78;3.85;;;;;;;2.95;50.35;99931.22;4256313;33;33905;-84
2023/03/29 05:05:11;;;;;;;8.02;3.58;;;;;;;3.38;46.09;99924.19;4256718;33;34176;-84
2023/03/29 05:07:39;;;;;;;9.02;4.00;;;;;;;3.39;47.76;99919.16;4242659;33;33814;-83
2023/03/29 05:10:09;;;;;;;9.60;4.37;;;;;;;3.29;48.18;99924.56;4257019;33;33814;-84
2023/03/29 05:12:36;;;;;;;10.60;4.15;;;;;;;3.34;48.11;99927.41;4258154;33;33771;-84
2023/03/29 05:15:04;;;;;;;7.43;3.50;;;;;;;3.01;48.78;99931.56;4249326;33;34512;-84
2023/03/29 05:17:33;;;;;;;8.75;3.72;;;;;;;2.73;47.93;99924.03;4244502;33;34320;-84
2023/03/29 05:20:06;;;;;;;9.25;3.95;;;;;;;3.05;47.73;99921.56;4252922;33;34847;-85
2023/03/29 05:22:35;;;;;;;9.85;3.70;;;;;;;3.39;48.59;99921.72;4258984;33;33586;-84
2023/03/29 05:25:03;;;;;;;10.38;3.90;;;;;;;3.20;48.92;99918.97;4244799;33;33875;-84
2023/03/29 05:27:32;;;;;;;9.60;4.50;;;;;;;3.08;48.01;99910.63;4257031;33;35123;-84
2023/03/29 05:30:01;;;;;;;10.27;3.65;;;;;;;2.71;46.41;99911.16;4244778;33;33514;-85
2023/03/29 05:32:29;;;;;;;8.35;4.07;;;;;;;3.09;47.04;99910.69;4244814;33;34500;-84
2023/03/29 05:34:57;;;;;;;9.00;4.15;;;;;;;2.79;46.64;99911.56;4255396;33;34106;-84
2023/03/29 05:37:25;;;;;;;11.35;4.25;;;;;;;2.66;46.93;99910.91;4267602;33;33455;-84
2023/03/29 05:39:53;;;;;;;8.05;4.32;;;;;;;2.36;48.25;99917.72;4258767;33;34087;-84
2023/03/29 05:42:33;;;;;;;11.90;4.85;;;;;;;2.73;47.01;99909.56;4258891;33;33984;-84
2023/03/29 05:45:01;;;;;;;10.93;4.80;;;;;;;2.54;46.97;99914.44;4257896;33;34974;-83
2023/03/29 05:47:28;;;;;;;8.20;4.40;;;;;;;2.67;46.31;99919.47;4258421;33;34983;-84
2023/03/29 05:49:56;;;;;;;10.65;4.30;;;;;;;2.76;46.62;99922.53;4258670;33;34523;-83
2023/03/29 05:52:24;;;;;;;10.10;4.00;;;;;;;2.88;46.82;99920.66;4258642;33;34619;-84
2023/03/29 05:54:52;;;;;;;11.12;4.15;;;;;;;2.89;46.56;99929.22;4259021;33;33972;-84
2023/03/29 05:57:20;;;;;;;8.85;4.30;;;;;;;3.37;45.94;99923.31;4259203;33;34853;-84
2023/03/29 05:59:48;;;;;;;9.93;4.60;;;;;;;3.39;45.20;99926.84;4258691;33;34394;-84
2023/03/29 06:02:15;;;;;;;9.90;4.25;;;;;;;3.62;44.64;99932.28;4246172;33;34006;-84
2023/03/29 06:04:44;;;;;;;8.55;5.30;;;;;;;3.65;44.32;99927.34;4259023;33;33880;-84
2023/03/29 06:07:13;;;;;;;10.82;4.60;;;;;;;3.62;43.86;99924.59;4258079;33;34386;-84
2023/03/29 06:09:43;;;;;;;8.52;4.40;;;;;;;3.09;45.75;99935.44;4257637;33;33597;-84
2023/03/29 06:12:11;;;;;;;10.07;4.32;;;;;;;3.54;44.85;99936.16;4258386;33;33963;-84
2023/03/29 06:14:39;;;;;;;12.55;5.70;;;;;;;3.70;43.97;99938.69;4257694;33;34095;-83
2023/03/29 06:17:09;;;;;;;10.32;5.80;;;;;;;3.52;45.00;99937.72;4258820;33;34378;-83
2023/03/29 06:19:37;;;;;;;34.50;9.38;;;;;;;3.80;44.92;99945.22;4258645;33;33399;-83
2023/03/29 06:22:04;;;;;;;26.52;12.05;;;;;;;4.15;44.87;99944.44;4269420;33;33943;-84
2023/03/29 06:24:32;;;;;;;30.90;9.32;;;;;;;4.24;44.95;99944.88;4258742;33;34262;-83
2023/03/29 06:27:00;;;;;;;10.40;4.87;;;;;;;4.26;44.83;99948.44;4245361;33;32711;-84
2023/03/29 06:29:29;;;;;;;10.93;4.68;;;;;;;4.37;43.34;99952.41;4244800;33;34400;-84
2023/03/29 06:31:56;;;;;;;10.32;5.40;;;;;;;4.31;43.71;99949.53;4257498;33;33988;-84
2023/03/29 06:34:26;;;;;;;12.63;4.35;;;;;;;4.12;43.59;99946.84;4258482;33;34299;-84
2023/03/29 06:36:55;;;;;;;15.30;5.45;;;;;;;4.35;43.28;99953.13;4257783;33;34150;-83
2023/03/29 06:39:25;;;;;;;10.50;3.87;;;;;;;4.38;43.42;99950.72;4258180;33;33857;-84
2023/03/29 06:41:54;;;;;;;10.20;4.00;;;;;;;4.39;43.34;99960.19;4258411;33;33942;-84
2023/03/29 06:44:22;;;;;;;13.30;4.03;;;;;;;4.68;43.52;99951.34;4258630;33;34008;-84
2023/03/29 06:46:51;;;;;;;8.05;3.87;;;;;;;4.82;42.88;99945.19;4258139;33;34027;-83
2023/03/29 06:49:20;;;;;;;8.13;3.87;;;;;;;4.88;42.38;99948.03;4258368;33;34543;-83
2023/03/29 06:51:48;;;;;;;8.90;3.60;;;;;;;4.52;42.51;99947.16;4258246;33;33667;-84
2023/03/29 06:54:15;;;;;;;9.25;3.78;;;;;;;4.29;42.64;99942.56;4258024;33;34576;-81
2023/03/29 06:56:47;;;;;;;6.57;2.92;;;;;;;4.88;41.66;99947.16;4245633;33;34241;-83
2023/03/29 06:59:15;;;;;;;9.00;3.87;;;;;;;4.51;42.58;99963.37;4258498;33;33751;-83
2023/03/29 07:01:43;;;;;;;7.80;3.70;;;;;;;4.80;41.59;99958.78;4258183;33;33955;-83
2023/03/29 07:04:12;;;;;;;7.93;3.62;;;;;;;4.79;41.50;99957.00;4257997;33;34198;-84
2023/03/29 07:06:47;;;;;;;7.68;3.72;;;;;;;4.72;41.51;99955.81;4258495;33;34961;-84
2023/03/29 07:09:18;;;;;;;7.47;3.22;;;;;;;5.03;41.78;99965.00;4258074;33;33520;-83
2023/03/29 07:11:48;;;;;;;8.38;3.55;;;;;;;4.65;40.89;99976.88;4245597;33;33979;-84
2023/03/29 07:14:17;;;;;;;6.95;2.95;;;;;;;4.57;41.95;99968.81;4258536;33;33840;-83
2023/03/29 07:16:45;;;;;;;9.93;2.97;;;;;;;5.07;40.07;99979.75;4258301;33;34243;-84
2023/03/29 07:19:14;;;;;;;5.78;2.62;;;;;;;5.03;40.78;99983.00;4245694;33;33595;-84
2023/03/29 07:21:46;;;;;;;8.23;3.08;;;;;;;4.99;39.60;99979.41;4258321;33;34855;-84
2023/03/29 07:24:13;;;;;;;7.30;2.97;;;;;;;5.09;38.83;99983.31;4258518;33;34670;-84
2023/03/29 07:26:41;;;;;;;5.32;2.67;;;;;;;4.88;40.12;99989.16;4258362;33;34342;-84
2023/03/29 07:29:27;;;;;;;13.45;3.95;;;;;;;4.72;39.65;99991.78;4257857;33;33348;-84
2023/03/29 07:31:55;;;;;;;7.95;3.28;;;;;;;5.20;38.78;99984.69;4258329;33;33674;-84
2023/03/29 07:34:28;;;;;;;6.03;2.55;;;;;;;5.45;39.31;99988.38;4258076;33;35170;-84
2023/03/29 08:31:44;;;;;;;7.30;2.10;;;;;;;6.67;33.87;99968.06;4257948;33;34436;-84
2023/03/29 08:34:11;;;;;;;6.50;2.50;;;;;;;6.41;33.79;99971.25;4259520;33;32933;-85
2023/03/29 08:36:39;;;;;;;5.35;2.67;;;;;;;6.56;33.78;99964.16;4246648;33;33895;-85
2023/03/29 08:39:07;;;;;;;4.90;1.90;;;;;;;6.73;33.39;99962.25;4235291;33;33455;-95
2023/03/29 08:41:59;;;;;;;8.10;2.65;;;;;;;7.09;32.53;99961.97;4246959;33;34172;-84
2023/03/29 08:44:42;;;;;;;6.40;2.97;;;;;;;6.67;33.02;99973.19;4246737;33;33631;-85
2023/03/29 08:47:28;;;;;;;5.45;2.20;;;;;;;6.64;32.77;99962.75;4259769;33;33552;-85
2023/03/29 08:49:56;;;;;;;5.65;2.45;;;;;;;7.39;32.80;99958.00;4246741;33;34247;-92
2023/03/29 08:52:34;;;;;;;4.28;1.90;;;;;;;7.36;31.57;99957.88;4234151;33;34348;-85
2023/03/29 08:55:10;;;;;;;5.53;2.12;;;;;;;7.43;30.97;99956.41;4259317;33;33657;-85
2023/03/29 08:57:48;;;;;;;4.60;1.95;;;;;;;7.49;31.05;99948.88;4235264;33;32869;-92
2023/03/29 09:00:19;;;;;;;;;;;;;;;6.96;31.33;99946.00;4235313;33;33414;-85
2023/03/29 09:02:47;;;;;;;5.12;2.40;;;;;;;7.04;31.84;99942.03;4234351;33;34508;-85
2023/03/29 09:05:23;;;;;;;5.32;2.30;;;;;;;7.38;32.47;99940.75;4234984;33;33515;-85
2023/03/29 09:07:52;;;;;;;4.15;2.00;;;;;;;7.57;32.45;99939.72;4234594;33;34574;-85
2023/03/29 09:10:26;;;;;;;6.40;2.05;;;;;;;7.31;33.58;99936.16;4246429;33;34236;-85
2023/03/29 09:13:00;;;;;;;5.80;1.75;;;;;;;7.11;33.70;99938.00;4259440;33;34228;-85
2023/03/29 09:15:52;;;;;;;4.95;2.17;;;;;;;7.16;33.43;99936.50;4258842;33;33549;-85
2023/03/29 09:18:25;;;;;;;4.53;2.22;;;;;;;7.72;32.15;99939.41;4238876;33;33145;-85
2023/03/29 09:20:59;;;;;;;5.07;2.12;;;;;;;7.58;32.25;99931.19;4246259;33;33285;-85
2023/03/29 09:23:51;;;;;;;5.43;1.80;;;;;;;7.55;34.51;99933.66;4246482;33;34945;-85
2023/03/29 09:26:56;;;;;;;5.18;2.33;;;;;;;8.10;31.88;99930.44;4246424;33;33454;-84
2023/03/29 09:29:39;;;;;;;5.45;2.00;;;;;;;8.06;31.05;99918.25;4247460;33;32439;-84
2023/03/29 09:32:17;;;;;;;4.05;1.67;;;;;;;7.13;32.87;99923.47;4273033;33;33961;-85
2023/03/29 09:34:57;;;;;;;5.60;2.00;;;;;;;7.85;31.92;99918.41;4248841;33;33361;-84
2023/03/29 09:37:31;;;;;;;5.50;2.22;;;;;;;8.09;32.27;99918.38;4260311;33;33365;-85
2023/03/29 09:39:59;;;;;;;3.92;1.85;;;;;;;8.08;33.08;99911.47;4260346;33;33629;-84
2023/03/29 09:42:30;;;;;;;7.03;2.05;;;;;;;7.81;31.85;99916.53;4273509;33;33819;-85
2023/03/29 09:45:07;;;;;;;6.53;2.10;;;;;;;8.20;32.85;99911.88;4248397;33;33215;-84
2023/03/29 09:47:43;;;;;;;5.07;1.75;;;;;;;8.29;32.32;99911.28;4248762;33;32295;-85
2023/03/29 09:50:17;;;;;;;5.28;2.28;;;;;;;8.50;30.78;99906.00;4260475;33;33859;-85
2023/03/29 09:52:57;;;;;;;4.75;2.00;;;;;;;8.51;32.41;99902.59;4261765;33;33726;-84
2023/03/29 09:55:28;;;;;;;6.12;2.60;;;;;;;8.61;30.97;99894.31;4248545;33;33435;-85
2023/03/29 09:57:59;;;;;;;5.78;2.53;;;;;;;9.16;31.78;99895.13;4260135;33;32971;-85
2023/03/29 10:00:27;;;;;;;7.95;2.67;;;;;;;8.43;31.48;99901.47;4260368;33;33871;-85
2023/03/29 10:02:57;;;;;;;7.05;2.70;;;;;;;8.95;32.14;99895.37;4272885;33;33597;-85
2023/03/29 10:05:28;;;;;;;8.27;2.58;;;;;;;9.05;32.25;99889.63;4260127;33;33438;-85
2023/03/29 10:08:00;;;;;;;5.20;2.40;;;;;;;8.73;32.84;99886.94;4260640;33;33525;-96
2023/03/29 10:10:30;;;;;;;10.20;3.12;;;;;;;9.03;33.83;99888.72;4248373;33;33464;-85
2023/03/29 10:13:00;;;;;;;4.82;2.40;;;;;;;9.21;32.55;99883.25;4260365;33;34824;-85
2023/03/29 10:15:28;;;;;;;6.18;2.60;;;;;;;9.65;32.27;99881.03;4248174;33;34716;-85
2023/03/29 10:18:02;;;;;;;5.62;2.62;;;;;;;9.96;30.56;99867.19;4249111;33;33363;-85
2023/03/29 10:20:34;;;;;;;6.15;2.00;;;;;;;9.76;31.94;99879.63;4260152;33;34445;-93
2023/03/29 10:23:03;;;;;;;6.95;2.62;;;;;;;9.50;31.93;99886.66;4259705;33;33670;-85
2023/03/29 10:25:33;;;;;;;5.28;2.12;;;;;;;9.58;31.87;99879.97;4260310;33;33676;-85
2023/03/29 10:28:11;;;;;;;5.62;2.15;;;;;;;9.14;31.50;99877.00;4259918;33;33329;-85
2023/03/29 10:30:39;;;;;;;5.53;2.30;;;;;;;9.64;31.18;99874.09;4259567;33;34322;-85
2023/03/29 10:33:15;;;;;;;5.47;2.17;;;;;;;10.28;31.00;99859.41;4248116;33;32984;-85
2023/03/29 10:35:49;;;;;;;6.97;2.35;;;;;;;9.27;31.52;99858.41;4260488;33;34000;-85
2023/03/29 10:38:19;;;;;;;6.15;2.00;;;;;;;9.19;31.87;99867.66;4259949;33;33496;-85
2023/03/29 10:40:48;;;;;;;5.60;2.20;;;;;;;9.37;31.66;99858.69;4259913;33;32992;-84
2023/03/29 10:43:16;;;;;;;8.25;2.30;;;;;;;9.58;32.85;99854.09;4248019;33;34949;-85
2023/03/29 10:45:47;;;;;;;6.35;2.60;;;;;;;9.79;31.63;99855.53;4272620;33;34177;-85
2023/03/29 10:48:16;;;;;;;7.43;2.47;;;;;;;8.72;32.41;99856.75;4259834;33;33382;-85
2023/03/29 10:50:51;;;;;;;5.03;2.35;;;;;;;9.94;32.66;99858.53;4260038;33;33887;-85
2023/03/29 10:53:25;;;;;;;5.10;2.20;;;;;;;9.54;30.63;99846.19;4260030;33;33705;-85
2023/03/29 10:56:15;;;;;;;5.68;2.08;;;;;;;10.26;30.11;99845.53;4247855;33;34318;-85
2023/03/29 10:59:02;;;;;;;5.93;2.08;;;;;;;9.95;30.30;99840.41;4272358;33;33306;-85
2023/03/29 11:01:41;;;;;;;5.78;2.50;;;;;;;9.16;31.69;99844.28;4259690;33;33976;-85
2023/03/29 11:04:24;;;;;;;4.35;2.33;;;;;;;10.25;31.97;99844.66;4248198;33;33430;-85
2023/03/29 11:06:58;;;;;;;5.70;2.80;;;;;;;10.36;30.52;99837.16;4247932;33;33506;-85
2023/03/29 11:09:35;;;;;;;5.10;2.30;;;;;;;10.22;30.04;99819.50;4272605;33;33317;-84
2023/03/29 11:12:24;;;;;;;5.28;2.25;;;;;;;9.62;31.50;99840.44;4272944;33;34491;-85
2023/03/29 11:15:12;;;;;;;5.80;2.40;;;;;;;10.13;30.59;99832.25;4248152;33;33822;-85
2023/03/29 11:18:08;;;;;;;6.22;2.33;;;;;;;9.71;32.52;99837.19;4264149;33;34705;-83
2023/03/29 11:20:47;;;;;;;6.60;2.40;;;;;;;9.60;32.42;99844.66;4265419;33;33697;-86
2023/03/29 11:23:28;;;;;;;6.32;2.30;;;;;;;10.13;30.57;99827.06;4264214;33;34768;-85
2023/03/29 11:25:59;;;;;;;5.05;2.53;;;;;;;10.02;31.17;99831.09;4277569;33;34507;-84
2023/03/29 11:29:09;;;;;;;5.25;2.30;;;;;;;10.16;33.38;99824.56;4263830;33;34752;-85
2023/03/29 11:32:01;;;;;;;6.40;2.25;;;;;;;10.41;31.38;99822.59;4243323;33;32671;-80
2023/03/29 11:34:38;;;;;;;6.12;2.35;;;;;;;10.62;32.41;99814.44;4264060;33;34744;-85
2023/03/29 11:37:14;;;;;;;6.15;2.37;;;;;;;10.73;31.51;99818.16;4276813;33;34567;-85
2023/03/29 11:40:04;;;;;;;5.28;2.30;;;;;;;11.10;32.65;99818.94;4263850;33;33558;-85
2023/03/29 11:42:38;;;;;;;6.65;2.20;;;;;;;10.95;31.00;99807.41;4263471;33;33143;-84
2023/03/29 11:45:14;;;;;;;8.32;2.42;;;;;;;11.13;31.31;99814.69;4276610;33;34649;-85
2023/03/29 11:47:43;;;;;;;5.10;2.60;;;;;;;10.49;30.69;99810.66;4276658;33;34081;-84
2023/03/29 11:50:14;;;;;;;5.68;2.40;;;;;;;9.98;31.62;99804.25;4263607;33;33388;-86
2023/03/29 11:52:54;;;;;;;8.50;2.70;;;;;;;10.29;30.97;99796.38;4276733;33;34445;-84
2023/03/29 11:55:37;;;;;;;6.93;2.75;;;;;;;10.35;32.08;99800.00;4263581;33;34793;-85
2023/03/29 11:58:18;;;;;;;6.53;3.00;;;;;;;10.82;31.05;99795.00;4251690;33;34021;-84
2023/03/29 12:01:06;;;;;;;5.53;2.53;;;;;;;10.29;31.95;99798.97;4263442;33;34158;-85
2023/03/29 12:03:42;;;;;;;7.00;3.17;;;;;;;10.37;32.85;99794.84;4276508;33;34394;-85
2023/03/29 12:06:22;;;;;;;8.52;3.25;;;;;;;10.89;32.25;99793.44;4263641;33;34510;-85
2023/03/29 12:08:59;;;;;;;8.77;3.15;;;;;;;10.92;31.90;99788.31;4263724;33;34820;-85
2023/03/29 12:11:36;;;;;;;6.47;2.80;;;;;;;11.00;32.15;99771.19;4263505;33;34060;-85
2023/03/29 12:14:16;;;;;;;8.65;3.33;;;;;;;11.41;32.18;99771.13;4263554;33;33263;-84
2023/03/29 12:16:53;;;;;;;6.32;3.58;;;;;;;10.36;32.36;99770.66;4252002;33;33892;-84
2023/03/29 12:19:30;;;;;;;6.22;3.33;;;;;;;10.41;32.62;99769.03;4263287;33;34789;-85
2023/03/29 12:21:58;;;;;;;7.40;3.70;;;;;;;10.75;33.25;99761.12;4251562;33;33839;-84
2023/03/29 12:24:29;;;;;;;6.43;3.22;;;;;;;10.79;32.72;99762.94;4276399;33;33236;-85
2023/03/29 12:27:07;;;;;;;6.87;3.03;;;;;;;10.94;32.93;99752.88;4261708;33;33829;-85
2023/03/29 12:30:12;;;;;;;7.75;3.40;;;;;;;11.11;32.03;99756.72;4261054;33;33906;-85
2023/03/29 12:32:59;;;;;;;5.87;3.20;;;;;;;11.06;32.52;99745.38;4274418;33;34787;-95
2023/03/29 12:35:34;;;;;;;6.43;3.10;;;;;;;10.53;34.15;99750.31;4274761;33;34349;-86
2023/03/29 12:38:25;;;;;;;7.03;2.92;;;;;;;10.95;34.39;99752.94;4274148;33;32880;-85
2023/03/29 12:41:03;;;;;;;;;;;;;;;11.14;33.34;99738.59;4262680;33;34125;-85
2023/03/29 12:43:36;;;;;;;9.25;3.47;;;;;;;11.42;33.75;99733.94;4261884;33;34572;-88
2023/03/29 12:46:10;;;;;;;6.95;2.70;;;;;;;11.37;33.00;99731.25;4249258;33;32599;-90
2023/03/29 12:48:39;;;;;;;7.78;3.12;;;;;;;11.15;33.17;99745.53;4262906;33;34269;-96
2023/03/29 12:51:14;;;;;;;6.87;3.33;;;;;;;11.08;33.27;99742.78;4262777;33;34662;-85
2023/03/29 12:53:44;;;;;;;8.52;3.83;;;;;;;11.32;32.53;99737.19;4275421;33;35091;-85
2023/03/29 12:56:14;;;;;;;7.70;3.05;;;;;;;11.30;33.28;99738.91;4262148;33;34005;-86
2023/03/29 12:58:48;;;;;;;6.15;3.15;;;;;;;11.15;33.75;99729.97;4262428;33;33561;-85